sensor_id;sensor_type;location;lat;lon;timestamp;P1;durP1;ratioP1;P2;durP2;ratioP2
30466;SDS011;17258;52.560;13.046;2022-12-01T00:07:07;39.13;;;22.93;;
30466;SDS011;17258;52.560;13.046;2022-12-01T00:17:08;34.13;;;20.70;;
30466;SDS011;17258;52.560;13.046;2022-12-01T00:27:09;34.73;;;21.20;;
30466;SDS011;17258;52.560;13.046;2022-12-01T00:37:09;28.07;;;18.90;;
30466;SDS011;17258;52.560;13.046;2022-12-01T00:47:10;28.30;;;19.67;;
30466;SDS011;17258;52.560;13.046;2022-12-01T00:57:11;28.57;;;21.03;;
30466;SDS011;17258;52.560;13.046;2022-12-01T01:07:12;38.08;;;22.90;;
30466;SDS011;17258;52.560;13.046;2022-12-01T01:17:12;27.77;;;20.20;;
30466;SDS011;17258;52.560;13.046;2022-12-01T01:27:13;31.33;;;20.13;;
30466;SDS011;17258;52.560;13.046;2022-12-01T01:37:14;47.70;;;23.70;;
30466;SDS011;17258;52.560;13.046;2022-12-01T01:47:15;33.30;;;20.93;;
30466;SDS011;17258;52.560;13.046;2022-12-01T01:57:31;30.10;;;20.48;;
30466;SDS011;17258;52.560;13.046;2022-12-01T02:07:32;34.60;;;20.42;;
30466;SDS011;17258;52.560;13.046;2022-12-01T02:17:39;29.43;;;20.77;;
30466;SDS011;17258;52.560;13.046;2022-12-01T02:28:03;27.40;;;20.05;;
30466;SDS011;17258;52.560;13.046;2022-12-01T02:38:24;35.67;;;24.97;;
30466;SDS011;17258;52.560;13.046;2022-12-01T02:48:45;32.38;;;21.48;;
30466;SDS011;17258;52.560;13.046;2022-12-01T02:58:50;36.70;;;23.17;;
30466;SDS011;17258;52.560;13.046;2022-12-01T03:08:53;37.95;;;22.40;;
30466;SDS011;17258;52.560;13.046;2022-12-01T03:18:56;34.90;;;22.30;;
30466;SDS011;17258;52.560;13.046;2022-12-01T03:29:07;28.33;;;20.70;;
30466;SDS011;17258;52.560;13.046;2022-12-01T03:39:14;36.97;;;23.70;;
30466;SDS011;17258;52.560;13.046;2022-12-01T03:49:21;33.72;;;21.80;;
30466;SDS011;17258;52.560;13.046;2022-12-01T03:59:24;27.95;;;17.83;;
30466;SDS011;17258;52.560;13.046;2022-12-01T04:09:27;31.60;;;19.23;;
30466;SDS011;17258;52.560;13.046;2022-12-01T04:19:27;32.40;;;20.50;;
30466;SDS011;17258;52.560;13.046;2022-12-01T04:29:28;34.40;;;19.65;;
30466;SDS011;17258;52.560;13.046;2022-12-01T04:39:29;38.33;;;21.87;;
30466;SDS011;17258;52.560;13.046;2022-12-01T04:49:30;33.17;;;20.47;;
30466;SDS011;17258;52.560;13.046;2022-12-01T04:59:31;37.38;;;21.88;;
30466;SDS011;17258;52.560;13.046;2022-12-01T05:09:32;37.63;;;21.47;;
30466;SDS011;17258;52.560;13.046;2022-12-01T05:19:33;34.73;;;20.37;;
30466;SDS011;17258;52.560;13.046;2022-12-01T05:29:52;31.63;;;21.80;;
30466;SDS011;17258;52.560;13.046;2022-12-01T05:39:52;31.03;;;20.87;;
30466;SDS011;17258;52.560;13.046;2022-12-01T05:49:53;37.83;;;22.70;;
30466;SDS011;17258;52.560;13.046;2022-12-01T05:59:54;37.60;;;22.50;;
30466;SDS011;17258;52.560;13.046;2022-12-01T06:09:54;41.20;;;22.70;;
30466;SDS011;17258;52.560;13.046;2022-12-01T06:19:55;34.77;;;23.10;;
30466;SDS011;17258;52.560;13.046;2022-12-01T06:29:56;33.70;;;23.67;;
30466;SDS011;17258;52.560;13.046;2022-12-01T06:39:56;34.47;;;22.73;;
30466;SDS011;17258;52.560;13.046;2022-12-01T06:49:57;37.87;;;24.40;;
30466;SDS011;17258;52.560;13.046;2022-12-01T06:59:58;35.63;;;20.43;;
30466;SDS011;17258;52.560;13.046;2022-12-01T07:09:58;37.87;;;24.93;;
30466;SDS011;17258;52.560;13.046;2022-12-01T07:19:59;32.87;;;24.00;;
30466;SDS011;17258;52.560;13.046;2022-12-01T07:30:00;37.73;;;25.93;;
30466;SDS011;17258;52.560;13.046;2022-12-01T07:40:00;33.60;;;26.53;;
30466;SDS011;17258;52.560;13.046;2022-12-01T07:50:01;41.47;;;27.48;;
30466;SDS011;17258;52.560;13.046;2022-12-01T08:00:02;39.05;;;29.45;;
30466;SDS011;17258;52.560;13.046;2022-12-01T08:10:03;38.45;;;26.42;;
30466;SDS011;17258;52.560;13.046;2022-12-01T08:20:05;33.75;;;23.95;;
30466;SDS011;17258;52.560;13.046;2022-12-01T08:30:07;32.25;;;24.20;;
30466;SDS011;17258;52.560;13.046;2022-12-01T08:40:08;31.90;;;25.80;;
30466;SDS011;17258;52.560;13.046;2022-12-01T08:50:09;39.53;;;27.08;;
30466;SDS011;17258;52.560;13.046;2022-12-01T09:00:10;50.83;;;31.52;;
30466;SDS011;17258;52.560;13.046;2022-12-01T09:10:12;46.45;;;32.88;;
30466;SDS011;17258;52.560;13.046;2022-12-01T09:20:13;47.00;;;30.35;;
30466;SDS011;17258;52.560;13.046;2022-12-01T09:30:13;60.23;;;38.50;;
30466;SDS011;17258;52.560;13.046;2022-12-01T09:40:14;55.42;;;35.58;;
30466;SDS011;17258;52.560;13.046;2022-12-01T09:50:16;55.97;;;35.78;;
30466;SDS011;17258;52.560;13.046;2022-12-01T10:00:25;59.78;;;38.80;;
30466;SDS011;17258;52.560;13.046;2022-12-01T10:10:36;56.83;;;36.50;;
30466;SDS011;17258;52.560;13.046;2022-12-01T10:20:52;49.75;;;33.83;;
30466;SDS011;17258;52.560;13.046;2022-12-01T10:51:51;56.17;;;37.10;;
30466;SDS011;17258;52.560;13.046;2022-12-01T11:01:55;59.38;;;33.58;;
30466;SDS011;17258;52.560;13.046;2022-12-01T11:11:58;50.25;;;32.00;;
30466;SDS011;17258;52.560;13.046;2022-12-01T11:22:02;48.75;;;33.72;;
30466;SDS011;17258;52.560;13.046;2022-12-01T11:32:25;37.70;;;27.77;;
30466;SDS011;17258;52.560;13.046;2022-12-01T11:42:29;38.58;;;28.90;;
30466;SDS011;17258;52.560;13.046;2022-12-01T11:52:32;33.35;;;24.75;;
30466;SDS011;17258;52.560;13.046;2022-12-01T12:02:45;31.13;;;25.27;;
30466;SDS011;17258;52.560;13.046;2022-12-01T12:23:55;35.70;;;28.05;;
30466;SDS011;17258;52.560;13.046;2022-12-01T12:44:50;30.33;;;22.88;;
30466;SDS011;17258;52.560;13.046;2022-12-01T12:55:13;37.67;;;25.70;;
30466;SDS011;17258;52.560;13.046;2022-12-01T13:15:40;36.60;;;25.35;;
30466;SDS011;17258;52.560;13.046;2022-12-01T13:25:42;34.00;;;23.13;;
30466;SDS011;17258;52.560;13.046;2022-12-01T13:35:51;31.20;;;22.50;;
30466;SDS011;17258;52.560;13.046;2022-12-01T13:45:53;29.85;;;23.63;;
30466;SDS011;17258;52.560;13.046;2022-12-01T14:06:06;30.23;;;23.55;;
30466;SDS011;17258;52.560;13.046;2022-12-01T14:16:09;30.90;;;24.73;;
30466;SDS011;17258;52.560;13.046;2022-12-01T14:26:11;32.33;;;22.50;;
30466;SDS011;17258;52.560;13.046;2022-12-01T14:46:23;36.33;;;23.70;;
30466;SDS011;17258;52.560;13.046;2022-12-01T14:56:26;24.83;;;20.20;;
30466;SDS011;17258;52.560;13.046;2022-12-01T15:06:29;28.40;;;22.55;;
30466;SDS011;17258;52.560;13.046;2022-12-01T15:16:38;31.25;;;22.00;;
30466;SDS011;17258;52.560;13.046;2022-12-01T15:26:47;27.27;;;20.67;;
30466;SDS011;17258;52.560;13.046;2022-12-01T15:36:51;29.77;;;22.88;;
30466;SDS011;17258;52.560;13.046;2022-12-01T15:46:52;25.95;;;19.98;;
30466;SDS011;17258;52.560;13.046;2022-12-01T15:56:53;26.48;;;19.75;;
30466;SDS011;17258;52.560;13.046;2022-12-01T16:06:58;30.05;;;22.67;;
30466;SDS011;17258;52.560;13.046;2022-12-01T16:17:07;25.88;;;22.05;;
30466;SDS011;17258;52.560;13.046;2022-12-01T16:27:17;31.77;;;22.52;;
30466;SDS011;17258;52.560;13.046;2022-12-01T16:37:26;35.20;;;27.15;;
30466;SDS011;17258;52.560;13.046;2022-12-01T16:47:27;34.55;;;23.30;;
30466;SDS011;17258;52.560;13.046;2022-12-01T16:57:31;33.63;;;22.92;;
30466;SDS011;17258;52.560;13.046;2022-12-01T17:07:31;28.07;;;22.27;;
30466;SDS011;17258;52.560;13.046;2022-12-01T17:17:32;34.93;;;24.50;;
30466;SDS011;17258;52.560;13.046;2022-12-01T17:27:32;30.73;;;24.47;;
30466;SDS011;17258;52.560;13.046;2022-12-01T17:37:33;31.17;;;22.60;;
30466;SDS011;17258;52.560;13.046;2022-12-01T17:47:35;31.50;;;23.98;;
30466;SDS011;17258;52.560;13.046;2022-12-01T17:57:36;27.17;;;23.77;;
30466;SDS011;17258;52.560;13.046;2022-12-01T18:07:37;27.90;;;20.20;;
30466;SDS011;17258;52.560;13.046;2022-12-01T18:17:38;31.27;;;25.17;;
30466;SDS011;17258;52.560;13.046;2022-12-01T18:27:38;28.35;;;23.10;;
30466;SDS011;17258;52.560;13.046;2022-12-01T18:37:39;28.33;;;22.37;;
30466;SDS011;17258;52.560;13.046;2022-12-01T18:47:40;27.23;;;22.80;;
30466;SDS011;17258;52.560;13.046;2022-12-01T18:57:40;22.73;;;18.17;;
30466;SDS011;17258;52.560;13.046;2022-12-01T19:07:41;32.07;;;22.73;;
30466;SDS011;17258;52.560;13.046;2022-12-01T19:17:41;20.03;;;16.27;;
30466;SDS011;17258;52.560;13.046;2022-12-01T19:27:42;23.20;;;19.83;;
30466;SDS011;17258;52.560;13.046;2022-12-01T19:37:43;25.50;;;20.40;;
30466;SDS011;17258;52.560;13.046;2022-12-01T19:47:44;24.77;;;19.13;;
30466;SDS011;17258;52.560;13.046;2022-12-01T19:57:49;22.90;;;20.27;;
30466;SDS011;17258;52.560;13.046;2022-12-01T20:07:50;24.15;;;21.08;;
30466;SDS011;17258;52.560;13.046;2022-12-01T20:17:51;25.60;;;20.47;;
30466;SDS011;17258;52.560;13.046;2022-12-01T20:27:52;29.58;;;21.08;;
30466;SDS011;17258;52.560;13.046;2022-12-01T20:37:53;30.73;;;20.07;;
30466;SDS011;17258;52.560;13.046;2022-12-01T20:47:54;28.37;;;18.37;;
30466;SDS011;17258;52.560;13.046;2022-12-01T20:57:54;27.63;;;18.87;;
30466;SDS011;17258;52.560;13.046;2022-12-01T21:07:55;24.57;;;16.97;;
30466;SDS011;17258;52.560;13.046;2022-12-01T21:18:03;25.07;;;19.40;;
30466;SDS011;17258;52.560;13.046;2022-12-01T21:28:19;19.58;;;17.15;;
30466;SDS011;17258;52.560;13.046;2022-12-01T21:38:23;22.65;;;16.88;;
30466;SDS011;17258;52.560;13.046;2022-12-01T21:48:24;28.23;;;19.13;;
30466;SDS011;17258;52.560;13.046;2022-12-01T21:58:35;22.90;;;16.27;;
30466;SDS011;17258;52.560;13.046;2022-12-01T22:08:37;28.35;;;17.48;;
30466;SDS011;17258;52.560;13.046;2022-12-01T22:18:44;21.33;;;17.80;;
30466;SDS011;17258;52.560;13.046;2022-12-01T22:28:51;25.15;;;18.77;;
30466;SDS011;17258;52.560;13.046;2022-12-01T22:38:55;22.27;;;16.90;;
30466;SDS011;17258;52.560;13.046;2022-12-01T22:49:18;20.95;;;16.55;;
30466;SDS011;17258;52.560;13.046;2022-12-01T22:59:22;17.70;;;15.50;;
30466;SDS011;17258;52.560;13.046;2022-12-01T23:09:33;21.65;;;17.75;;
30466;SDS011;17258;52.560;13.046;2022-12-01T23:19:42;26.73;;;14.82;;
30466;SDS011;17258;52.560;13.046;2022-12-01T23:29:42;19.50;;;16.60;;
30466;SDS011;17258;52.560;13.046;2022-12-01T23:39:43;23.83;;;17.85;;
30466;SDS011;17258;52.560;13.046;2022-12-01T23:49:44;18.73;;;15.32;;
30466;SDS011;17258;52.560;13.046;2022-12-01T23:59:47;16.42;;;14.35;;
